sensor_id;sensor_type;location;lat;lon;timestamp;P1;durP1;ratioP1;P2;durP2;ratioP2
11425;SDS011;5769;47.998;7.788;2024-01-10T00:00:05;2.33;;;1.00;;
11425;SDS011;5769;47.998;7.788;2024-01-10T00:02:33;1.70;;;0.80;;
11425;SDS011;5769;47.998;7.788;2024-01-10T00:05:02;2.38;;;1.10;;
11425;SDS011;5769;47.998;7.788;2024-01-10T00:07:29;1.73;;;0.90;;
11425;SDS011;5769;47.998;7.788;2024-01-10T00:09:56;1.60;;;0.82;;
11425;SDS011;5769;47.998;7.788;2024-01-10T00:12:24;1.90;;;0.90;;
11425;SDS011;5769;47.998;7.788;2024-01-10T00:14:51;1.52;;;0.90;;
11425;SDS011;5769;47.998;7.788;2024-01-10T00:17:19;1.60;;;1.00;;
11425;SDS011;5769;47.998;7.788;2024-01-10T00:19:49;2.38;;;1.10;;
11425;SDS011;5769;47.998;7.788;2024-01-10T00:22:16;1.80;;;1.00;;
11425;SDS011;5769;47.998;7.788;2024-01-10T00:24:42;1.95;;;1.00;;
11425;SDS011;5769;47.998;7.788;2024-01-10T00:27:09;3.17;;;1.10;;
11425;SDS011;5769;47.998;7.788;2024-01-10T00:29:36;1.45;;;1.05;;
11425;SDS011;5769;47.998;7.788;2024-01-10T00:32:03;2.15;;;1.10;;
11425;SDS011;5769;47.998;7.788;2024-01-10T00:34:33;2.17;;;0.90;;
11425;SDS011;5769;47.998;7.788;2024-01-10T00:37:00;1.27;;;0.90;;
11425;SDS011;5769;47.998;7.788;2024-01-10T00:39:26;2.33;;;1.00;;
11425;SDS011;5769;47.998;7.788;2024-01-10T00:41:53;1.85;;;1.05;;
11425;SDS011;5769;47.998;7.788;2024-01-10T00:44:20;1.42;;;0.90;;
11425;SDS011;5769;47.998;7.788;2024-01-10T00:46:46;1.50;;;0.90;;
11425;SDS011;5769;47.998;7.788;2024-01-10T00:49:13;2.00;;;0.90;;
11425;SDS011;5769;47.998;7.788;2024-01-10T00:51:41;2.05;;;0.90;;
11425;SDS011;5769;47.998;7.788;2024-01-10T00:54:08;1.80;;;1.10;;
11425;SDS011;5769;47.998;7.788;2024-01-10T00:56:35;1.55;;;0.90;;
11425;SDS011;5769;47.998;7.788;2024-01-10T00:59:04;2.22;;;1.05;;
11425;SDS011;5769;47.998;7.788;2024-01-10T01:01:31;1.63;;;0.93;;
11425;SDS011;5769;47.998;7.788;2024-01-10T01:03:58;2.13;;;1.10;;
11425;SDS011;5769;47.998;7.788;2024-01-10T01:06:25;2.45;;;1.00;;
11425;SDS011;5769;47.998;7.788;2024-01-10T01:08:53;1.48;;;1.00;;
11425;SDS011;5769;47.998;7.788;2024-01-10T01:11:20;2.03;;;1.20;;
11425;SDS011;5769;47.998;7.788;2024-01-10T01:13:46;2.45;;;1.20;;
11425;SDS011;5769;47.998;7.788;2024-01-10T01:16:13;1.52;;;1.00;;
11425;SDS011;5769;47.998;7.788;2024-01-10T01:18:40;1.10;;;0.80;;
11425;SDS011;5769;47.998;7.788;2024-01-10T01:21:10;1.50;;;0.90;;
11425;SDS011;5769;47.998;7.788;2024-01-10T01:23:37;1.13;;;0.80;;
11425;SDS011;5769;47.998;7.788;2024-01-10T01:26:05;1.83;;;1.05;;
11425;SDS011;5769;47.998;7.788;2024-01-10T01:28:32;1.55;;;0.90;;
11425;SDS011;5769;47.998;7.788;2024-01-10T01:30:58;2.22;;;0.93;;
11425;SDS011;5769;47.998;7.788;2024-01-10T01:33:25;1.63;;;1.00;;
11425;SDS011;5769;47.998;7.788;2024-01-10T01:35:52;1.20;;;0.80;;
11425;SDS011;5769;47.998;7.788;2024-01-10T01:38:19;1.73;;;0.95;;
11425;SDS011;5769;47.998;7.788;2024-01-10T01:40:46;1.77;;;1.00;;
11425;SDS011;5769;47.998;7.788;2024-01-10T01:43:21;2.17;;;1.10;;
11425;SDS011;5769;47.998;7.788;2024-01-10T01:45:50;3.47;;;1.00;;
11425;SDS011;5769;47.998;7.788;2024-01-10T01:48:18;1.73;;;0.90;;
11425;SDS011;5769;47.998;7.788;2024-01-10T01:50:46;1.85;;;1.00;;
11425;SDS011;5769;47.998;7.788;2024-01-10T01:53:15;1.80;;;1.10;;
11425;SDS011;5769;47.998;7.788;2024-01-10T01:55:44;1.60;;;0.93;;
11425;SDS011;5769;47.998;7.788;2024-01-10T01:58:13;1.75;;;0.85;;
11425;SDS011;5769;47.998;7.788;2024-01-10T02:00:41;2.33;;;0.95;;
11425;SDS011;5769;47.998;7.788;2024-01-10T02:03:09;2.15;;;1.05;;
11425;SDS011;5769;47.998;7.788;2024-01-10T02:05:36;2.08;;;0.98;;
11425;SDS011;5769;47.998;7.788;2024-01-10T02:08:03;2.58;;;1.08;;
11425;SDS011;5769;47.998;7.788;2024-01-10T02:10:30;1.30;;;0.88;;
11425;SDS011;5769;47.998;7.788;2024-01-10T02:12:57;2.30;;;1.13;;
11425;SDS011;5769;47.998;7.788;2024-01-10T02:15:24;1.95;;;1.00;;
11425;SDS011;5769;47.998;7.788;2024-01-10T02:17:52;1.98;;;1.10;;
11425;SDS011;5769;47.998;7.788;2024-01-10T02:20:19;2.20;;;1.10;;
11425;SDS011;5769;47.998;7.788;2024-01-10T02:22:46;2.05;;;1.00;;
11425;SDS011;5769;47.998;7.788;2024-01-10T02:25:19;2.25;;;1.17;;
11425;SDS011;5769;47.998;7.788;2024-01-10T02:27:46;1.70;;;0.93;;
11425;SDS011;5769;47.998;7.788;2024-01-10T02:30:13;1.38;;;0.90;;
11425;SDS011;5769;47.998;7.788;2024-01-10T02:32:40;1.33;;;0.88;;
11425;SDS011;5769;47.998;7.788;2024-01-10T02:35:07;1.92;;;1.08;;
11425;SDS011;5769;47.998;7.788;2024-01-10T02:37:34;1.90;;;1.10;;
11425;SDS011;5769;47.998;7.788;2024-01-10T02:40:01;2.60;;;1.13;;
11425;SDS011;5769;47.998;7.788;2024-01-10T02:42:29;2.08;;;1.00;;
11425;SDS011;5769;47.998;7.788;2024-01-10T02:44:57;2.30;;;1.00;;
11425;SDS011;5769;47.998;7.788;2024-01-10T02:47:23;1.92;;;1.00;;
11425;SDS011;5769;47.998;7.788;2024-01-10T02:49:50;1.75;;;1.00;;
11425;SDS011;5769;47.998;7.788;2024-01-10T02:52:17;1.25;;;0.80;;
11425;SDS011;5769;47.998;7.788;2024-01-10T02:54:44;1.13;;;0.70;;
11425;SDS011;5769;47.998;7.788;2024-01-10T02:57:11;1.70;;;1.00;;
11425;SDS011;5769;47.998;7.788;2024-01-10T02:59:42;1.60;;;1.00;;
11425;SDS011;5769;47.998;7.788;2024-01-10T03:02:09;1.85;;;1.05;;
11425;SDS011;5769;47.998;7.788;2024-01-10T03:04:36;1.60;;;1.00;;
11425;SDS011;5769;47.998;7.788;2024-01-10T03:07:03;2.33;;;1.08;;
11425;SDS011;5769;47.998;7.788;2024-01-10T03:09:30;1.58;;;0.93;;
11425;SDS011;5769;47.998;7.788;2024-01-10T03:11:56;1.83;;;0.90;;
11425;SDS011;5769;47.998;7.788;2024-01-10T03:14:23;1.65;;;0.80;;
11425;SDS011;5769;47.998;7.788;2024-01-10T03:16:51;2.20;;;1.10;;
11425;SDS011;5769;47.998;7.788;2024-01-10T03:19:21;2.17;;;1.02;;
11425;SDS011;5769;47.998;7.788;2024-01-10T03:21:48;2.22;;;1.10;;
11425;SDS011;5769;47.998;7.788;2024-01-10T03:24:17;1.75;;;1.00;;
11425;SDS011;5769;47.998;7.788;2024-01-10T03:26:44;1.38;;;0.80;;
11425;SDS011;5769;47.998;7.788;2024-01-10T03:29:11;1.58;;;0.98;;
11425;SDS011;5769;47.998;7.788;2024-01-10T03:31:38;1.15;;;0.80;;
11425;SDS011;5769;47.998;7.788;2024-01-10T03:34:06;1.67;;;1.02;;
11425;SDS011;5769;47.998;7.788;2024-01-10T03:36:32;2.20;;;1.10;;
11425;SDS011;5769;47.998;7.788;2024-01-10T03:38:59;1.65;;;0.90;;
11425;SDS011;5769;47.998;7.788;2024-01-10T03:41:26;2.00;;;0.90;;
11425;SDS011;5769;47.998;7.788;2024-01-10T03:43:53;1.77;;;1.00;;
11425;SDS011;5769;47.998;7.788;2024-01-10T03:46:19;2.47;;;1.00;;
11425;SDS011;5769;47.998;7.788;2024-01-10T03:48:46;2.08;;;1.10;;
11425;SDS011;5769;47.998;7.788;2024-01-10T03:51:15;1.80;;;1.00;;
11425;SDS011;5769;47.998;7.788;2024-01-10T03:53:42;3.13;;;1.00;;
11425;SDS011;5769;47.998;7.788;2024-01-10T03:56:09;2.45;;;0.95;;
11425;SDS011;5769;47.998;7.788;2024-01-10T03:58:36;1.92;;;1.10;;
11425;SDS011;5769;47.998;7.788;2024-01-10T04:01:05;1.60;;;1.10;;
11425;SDS011;5769;47.998;7.788;2024-01-10T04:03:33;2.08;;;1.15;;
11425;SDS011;5769;47.998;7.788;2024-01-10T04:06:00;1.25;;;0.77;;
11425;SDS011;5769;47.998;7.788;2024-01-10T04:08:51;1.38;;;0.88;;
11425;SDS011;5769;47.998;7.788;2024-01-10T04:11:23;1.60;;;0.98;;
11425;SDS011;5769;47.998;7.788;2024-01-10T04:13:53;1.70;;;1.00;;
11425;SDS011;5769;47.998;7.788;2024-01-10T04:16:20;1.55;;;0.88;;
11425;SDS011;5769;47.998;7.788;2024-01-10T04:18:49;1.70;;;0.90;;
11425;SDS011;5769;47.998;7.788;2024-01-10T04:21:16;3.90;;;1.00;;
11425;SDS011;5769;47.998;7.788;2024-01-10T04:23:43;1.85;;;0.80;;
11425;SDS011;5769;47.998;7.788;2024-01-10T04:26:11;1.85;;;1.10;;
11425;SDS011;5769;47.998;7.788;2024-01-10T04:28:38;1.25;;;0.82;;
11425;SDS011;5769;47.998;7.788;2024-01-10T04:31:06;1.67;;;0.90;;
11425;SDS011;5769;47.998;7.788;2024-01-10T04:33:36;1.30;;;0.80;;
11425;SDS011;5769;47.998;7.788;2024-01-10T04:36:22;2.47;;;1.08;;
11425;SDS011;5769;47.998;7.788;2024-01-10T04:38:49;2.15;;;0.95;;
11425;SDS011;5769;47.998;7.788;2024-01-10T04:41:17;1.63;;;1.00;;
11425;SDS011;5769;47.998;7.788;2024-01-10T04:43:44;2.35;;;1.00;;
11425;SDS011;5769;47.998;7.788;2024-01-10T04:46:13;1.90;;;1.10;;
11425;SDS011;5769;47.998;7.788;2024-01-10T04:48:40;1.45;;;0.80;;
11425;SDS011;5769;47.998;7.788;2024-01-10T04:51:07;1.60;;;0.90;;
11425;SDS011;5769;47.998;7.788;2024-01-10T04:53:33;2.22;;;1.00;;
11425;SDS011;5769;47.998;7.788;2024-01-10T04:56:01;1.65;;;1.00;;
11425;SDS011;5769;47.998;7.788;2024-01-10T04:58:32;1.95;;;0.90;;
11425;SDS011;5769;47.998;7.788;2024-01-10T05:01:00;2.00;;;1.00;;
11425;SDS011;5769;47.998;7.788;2024-01-10T05:03:27;1.40;;;0.80;;
11425;SDS011;5769;47.998;7.788;2024-01-10T05:05:53;1.90;;;0.85;;
11425;SDS011;5769;47.998;7.788;2024-01-10T05:08:20;2.08;;;1.10;;
11425;SDS011;5769;47.998;7.788;2024-01-10T05:10:47;1.48;;;1.02;;
11425;SDS011;5769;47.998;7.788;2024-01-10T05:13:13;1.27;;;0.80;;
11425;SDS011;5769;47.998;7.788;2024-01-10T05:15:42;1.48;;;0.90;;
11425;SDS011;5769;47.998;7.788;2024-01-10T05:18:08;2.40;;;1.10;;
11425;SDS011;5769;47.998;7.788;2024-01-10T05:20:35;2.20;;;1.00;;
11425;SDS011;5769;47.998;7.788;2024-01-10T05:23:02;1.45;;;0.80;;
11425;SDS011;5769;47.998;7.788;2024-01-10T05:25:30;2.20;;;0.95;;
11425;SDS011;5769;47.998;7.788;2024-01-10T05:27:57;1.92;;;0.93;;
11425;SDS011;5769;47.998;7.788;2024-01-10T05:30:27;2.33;;;1.05;;
11425;SDS011;5769;47.998;7.788;2024-01-10T05:32:56;2.00;;;0.90;;
11425;SDS011;5769;47.998;7.788;2024-01-10T05:35:23;2.00;;;1.00;;
11425;SDS011;5769;47.998;7.788;2024-01-10T05:37:50;1.70;;;0.93;;
11425;SDS011;5769;47.998;7.788;2024-01-10T05:40:17;1.70;;;1.10;;
11425;SDS011;5769;47.998;7.788;2024-01-10T05:45:46;1.27;;;0.90;;
11425;SDS011;5769;47.998;7.788;2024-01-10T05:48:17;1.20;;;0.90;;
11425;SDS011;5769;47.998;7.788;2024-01-10T05:50:44;1.80;;;0.90;;
11425;SDS011;5769;47.998;7.788;2024-01-10T05:53:23;1.80;;;1.10;;
11425;SDS011;5769;47.998;7.788;2024-01-10T05:55:51;1.50;;;1.00;;
11425;SDS011;5769;47.998;7.788;2024-01-10T05:58:18;1.60;;;1.02;;
11425;SDS011;5769;47.998;7.788;2024-01-10T06:00:45;1.40;;;0.88;;
11425;SDS011;5769;47.998;7.788;2024-01-10T06:03:12;1.42;;;0.80;;
11425;SDS011;5769;47.998;7.788;2024-01-10T06:05:40;1.88;;;0.90;;
11425;SDS011;5769;47.998;7.788;2024-01-10T06:08:07;1.80;;;0.95;;
11425;SDS011;5769;47.998;7.788;2024-01-10T06:10:36;1.23;;;0.80;;
11425;SDS011;5769;47.998;7.788;2024-01-10T06:13:03;2.28;;;0.93;;
11425;SDS011;5769;47.998;7.788;2024-01-10T06:15:30;1.50;;;1.00;;
11425;SDS011;5769;47.998;7.788;2024-01-10T06:17:59;1.98;;;1.10;;
11425;SDS011;5769;47.998;7.788;2024-01-10T06:20:26;1.00;;;0.80;;
11425;SDS011;5769;47.998;7.788;2024-01-10T06:22:55;1.83;;;0.95;;
11425;SDS011;5769;47.998;7.788;2024-01-10T06:25:25;1.48;;;0.90;;
11425;SDS011;5769;47.998;7.788;2024-01-10T06:27:53;1.65;;;1.00;;
11425;SDS011;5769;47.998;7.788;2024-01-10T06:30:20;1.33;;;0.90;;
11425;SDS011;5769;47.998;7.788;2024-01-10T06:32:47;2.10;;;0.90;;
11425;SDS011;5769;47.998;7.788;2024-01-10T06:35:14;1.98;;;1.00;;
11425;SDS011;5769;47.998;7.788;2024-01-10T06:37:41;1.73;;;0.90;;
11425;SDS011;5769;47.998;7.788;2024-01-10T06:40:15;1.48;;;0.73;;
11425;SDS011;5769;47.998;7.788;2024-01-10T06:42:47;1.88;;;1.00;;
11425;SDS011;5769;47.998;7.788;2024-01-10T06:45:16;1.92;;;1.10;;
11425;SDS011;5769;47.998;7.788;2024-01-10T06:47:43;2.17;;;1.02;;
11425;SDS011;5769;47.998;7.788;2024-01-10T06:50:10;1.52;;;0.90;;
11425;SDS011;5769;47.998;7.788;2024-01-10T06:52:37;1.55;;;0.90;;
11425;SDS011;5769;47.998;7.788;2024-01-10T06:55:05;1.52;;;1.02;;
11425;SDS011;5769;47.998;7.788;2024-01-10T06:57:35;2.13;;;1.10;;
11425;SDS011;5769;47.998;7.788;2024-01-10T07:00:02;1.83;;;0.90;;
11425;SDS011;5769;47.998;7.788;2024-01-10T07:02:32;2.38;;;0.98;;
11425;SDS011;5769;47.998;7.788;2024-01-10T07:05:00;1.83;;;1.00;;
11425;SDS011;5769;47.998;7.788;2024-01-10T07:07:30;1.80;;;1.00;;
11425;SDS011;5769;47.998;7.788;2024-01-10T07:10:00;1.70;;;1.00;;
11425;SDS011;5769;47.998;7.788;2024-01-10T07:12:30;1.98;;;1.08;;
11425;SDS011;5769;47.998;7.788;2024-01-10T07:14:59;2.00;;;1.10;;
11425;SDS011;5769;47.998;7.788;2024-01-10T07:17:28;1.83;;;1.00;;
11425;SDS011;5769;47.998;7.788;2024-01-10T07:19:55;2.10;;;1.10;;
11425;SDS011;5769;47.998;7.788;2024-01-10T07:22:24;1.77;;;0.88;;
11425;SDS011;5769;47.998;7.788;2024-01-10T07:24:52;2.08;;;1.17;;
11425;SDS011;5769;47.998;7.788;2024-01-10T07:27:18;1.77;;;1.00;;
11425;SDS011;5769;47.998;7.788;2024-01-10T07:29:45;2.28;;;1.10;;
11425;SDS011;5769;47.998;7.788;2024-01-10T07:32:13;2.33;;;1.10;;
11425;SDS011;5769;47.998;7.788;2024-01-10T07:34:54;1.75;;;1.08;;
11425;SDS011;5769;47.998;7.788;2024-01-10T07:37:23;2.05;;;1.00;;
11425;SDS011;5769;47.998;7.788;2024-01-10T07:39:51;2.03;;;0.88;;
11425;SDS011;5769;47.998;7.788;2024-01-10T07:42:21;2.17;;;1.00;;
11425;SDS011;5769;47.998;7.788;2024-01-10T07:47:41;2.10;;;1.05;;
11425;SDS011;5769;47.998;7.788;2024-01-10T07:50:09;1.40;;;0.95;;
11425;SDS011;5769;47.998;7.788;2024-01-10T07:52:37;1.15;;;0.80;;
11425;SDS011;5769;47.998;7.788;2024-01-10T07:55:05;1.95;;;0.90;;
11425;SDS011;5769;47.998;7.788;2024-01-10T07:57:33;1.35;;;0.82;;
11425;SDS011;5769;47.998;7.788;2024-01-10T08:00:03;1.77;;;0.90;;
11425;SDS011;5769;47.998;7.788;2024-01-10T08:02:30;1.58;;;0.90;;
11425;SDS011;5769;47.998;7.788;2024-01-10T08:05:01;1.55;;;0.93;;
11425;SDS011;5769;47.998;7.788;2024-01-10T08:07:30;1.42;;;0.85;;
11425;SDS011;5769;47.998;7.788;2024-01-10T08:09:58;1.63;;;0.80;;
11425;SDS011;5769;47.998;7.788;2024-01-10T08:12:25;1.75;;;0.90;;
11425;SDS011;5769;47.998;7.788;2024-01-10T08:14:53;1.63;;;1.08;;
11425;SDS011;5769;47.998;7.788;2024-01-10T08:17:20;1.52;;;0.95;;
11425;SDS011;5769;47.998;7.788;2024-01-10T08:19:48;2.28;;;0.93;;
11425;SDS011;5769;47.998;7.788;2024-01-10T08:22:16;2.92;;;1.10;;
11425;SDS011;5769;47.998;7.788;2024-01-10T08:24:44;2.08;;;1.20;;
11425;SDS011;5769;47.998;7.788;2024-01-10T08:27:11;2.00;;;1.02;;
11425;SDS011;5769;47.998;7.788;2024-01-10T08:29:38;2.20;;;1.10;;
11425;SDS011;5769;47.998;7.788;2024-01-10T08:32:05;2.33;;;1.10;;
11425;SDS011;5769;47.998;7.788;2024-01-10T08:34:32;3.17;;;1.30;;
11425;SDS011;5769;47.998;7.788;2024-01-10T08:36:59;1.58;;;0.85;;
11425;SDS011;5769;47.998;7.788;2024-01-10T08:39:28;2.83;;;1.00;;
11425;SDS011;5769;47.998;7.788;2024-01-10T08:41:56;1.65;;;1.10;;
11425;SDS011;5769;47.998;7.788;2024-01-10T08:44:23;1.63;;;1.00;;
11425;SDS011;5769;47.998;7.788;2024-01-10T08:46:50;2.13;;;0.90;;
11425;SDS011;5769;47.998;7.788;2024-01-10T08:49:17;1.45;;;0.77;;
11425;SDS011;5769;47.998;7.788;2024-01-10T08:51:45;2.95;;;0.90;;
11425;SDS011;5769;47.998;7.788;2024-01-10T08:54:12;1.90;;;0.90;;
11425;SDS011;5769;47.998;7.788;2024-01-10T08:56:43;1.92;;;1.00;;
11425;SDS011;5769;47.998;7.788;2024-01-10T08:59:10;1.70;;;1.00;;
11425;SDS011;5769;47.998;7.788;2024-01-10T09:01:38;1.90;;;1.00;;
11425;SDS011;5769;47.998;7.788;2024-01-10T09:04:05;2.00;;;0.98;;
11425;SDS011;5769;47.998;7.788;2024-01-10T09:06:32;1.65;;;0.90;;
11425;SDS011;5769;47.998;7.788;2024-01-10T09:08:59;2.38;;;1.00;;
11425;SDS011;5769;47.998;7.788;2024-01-10T09:11:27;1.30;;;0.77;;
11425;SDS011;5769;47.998;7.788;2024-01-10T09:13:56;1.80;;;0.98;;
11425;SDS011;5769;47.998;7.788;2024-01-10T09:16:24;2.15;;;1.20;;
11425;SDS011;5769;47.998;7.788;2024-01-10T09:18:52;1.92;;;0.98;;
11425;SDS011;5769;47.998;7.788;2024-01-10T09:21:21;1.63;;;0.80;;
11425;SDS011;5769;47.998;7.788;2024-01-10T09:23:48;1.13;;;0.80;;
11425;SDS011;5769;47.998;7.788;2024-01-10T09:26:16;1.52;;;1.02;;
11425;SDS011;5769;47.998;7.788;2024-01-10T09:28:44;2.00;;;1.00;;
11425;SDS011;5769;47.998;7.788;2024-01-10T09:31:12;1.60;;;0.90;;
11425;SDS011;5769;47.998;7.788;2024-01-10T09:33:38;2.08;;;1.02;;
11425;SDS011;5769;47.998;7.788;2024-01-10T09:36:06;1.30;;;0.98;;
11425;SDS011;5769;47.998;7.788;2024-01-10T09:38:34;1.83;;;1.00;;
11425;SDS011;5769;47.998;7.788;2024-01-10T09:41:05;1.70;;;1.00;;
11425;SDS011;5769;47.998;7.788;2024-01-10T09:43:32;1.52;;;0.95;;
11425;SDS011;5769;47.998;7.788;2024-01-10T09:46:00;1.73;;;0.80;;
11425;SDS011;5769;47.998;7.788;2024-01-10T09:48:29;1.95;;;0.95;;
11425;SDS011;5769;47.998;7.788;2024-01-10T09:50:57;2.17;;;1.00;;
11425;SDS011;5769;47.998;7.788;2024-01-10T09:53:25;2.15;;;0.90;;
11425;SDS011;5769;47.998;7.788;2024-01-10T09:55:57;1.70;;;1.00;;
11425;SDS011;5769;47.998;7.788;2024-01-10T09:58:26;2.28;;;1.10;;
11425;SDS011;5769;47.998;7.788;2024-01-10T10:00:53;1.30;;;0.88;;
11425;SDS011;5769;47.998;7.788;2024-01-10T10:03:33;1.67;;;1.02;;
11425;SDS011;5769;47.998;7.788;2024-01-10T10:06:04;1.83;;;1.00;;
11425;SDS011;5769;47.998;7.788;2024-01-10T10:08:31;1.35;;;0.93;;
11425;SDS011;5769;47.998;7.788;2024-01-10T10:10:57;1.48;;;0.90;;
11425;SDS011;5769;47.998;7.788;2024-01-10T10:13:24;1.42;;;1.02;;
11425;SDS011;5769;47.998;7.788;2024-01-10T10:15:59;1.95;;;1.00;;
11425;SDS011;5769;47.998;7.788;2024-01-10T10:18:26;1.80;;;0.90;;
11425;SDS011;5769;47.998;7.788;2024-01-10T10:21:07;1.35;;;0.82;;
11425;SDS011;5769;47.998;7.788;2024-01-10T10:23:41;1.90;;;0.93;;
11425;SDS011;5769;47.998;7.788;2024-01-10T10:26:26;1.58;;;0.82;;
11425;SDS011;5769;47.998;7.788;2024-01-10T10:28:54;1.77;;;0.90;;
11425;SDS011;5769;47.998;7.788;2024-01-10T10:31:22;1.95;;;1.08;;
11425;SDS011;5769;47.998;7.788;2024-01-10T10:33:51;1.95;;;1.00;;
11425;SDS011;5769;47.998;7.788;2024-01-10T10:36:27;1.38;;;0.73;;
11425;SDS011;5769;47.998;7.788;2024-01-10T10:39:00;3.05;;;1.10;;
11425;SDS011;5769;47.998;7.788;2024-01-10T10:41:38;1.52;;;0.90;;
11425;SDS011;5769;47.998;7.788;2024-01-10T10:44:06;1.98;;;0.90;;
11425;SDS011;5769;47.998;7.788;2024-01-10T10:46:38;1.88;;;1.00;;
11425;SDS011;5769;47.998;7.788;2024-01-10T10:49:09;2.20;;;0.90;;
11425;SDS011;5769;47.998;7.788;2024-01-10T10:51:39;1.80;;;0.95;;
11425;SDS011;5769;47.998;7.788;2024-01-10T10:54:08;1.23;;;0.77;;
11425;SDS011;5769;47.998;7.788;2024-01-10T10:56:37;1.23;;;0.80;;
11425;SDS011;5769;47.998;7.788;2024-01-10T10:59:09;2.58;;;1.20;;
11425;SDS011;5769;47.998;7.788;2024-01-10T11:01:40;1.90;;;1.10;;
11425;SDS011;5769;47.998;7.788;2024-01-10T11:04:19;1.60;;;1.00;;
11425;SDS011;5769;47.998;7.788;2024-01-10T11:06:53;3.03;;;1.05;;
11425;SDS011;5769;47.998;7.788;2024-01-10T11:09:28;1.30;;;0.88;;
11425;SDS011;5769;47.998;7.788;2024-01-10T11:12:03;1.95;;;0.90;;
11425;SDS011;5769;47.998;7.788;2024-01-10T11:14:43;1.98;;;1.02;;
11425;SDS011;5769;47.998;7.788;2024-01-10T11:17:46;2.22;;;1.05;;
11425;SDS011;5769;47.998;7.788;2024-01-10T11:20:42;2.50;;;1.08;;
11425;SDS011;5769;47.998;7.788;2024-01-10T11:26:18;1.98;;;0.90;;
11425;SDS011;5769;47.998;7.788;2024-01-10T11:28:48;2.45;;;1.00;;
11425;SDS011;5769;47.998;7.788;2024-01-10T11:31:28;2.33;;;1.08;;
11425;SDS011;5769;47.998;7.788;2024-01-10T11:33:59;1.30;;;0.80;;
11425;SDS011;5769;47.998;7.788;2024-01-10T11:36:28;2.28;;;1.20;;
11425;SDS011;5769;47.998;7.788;2024-01-10T11:38:59;1.55;;;0.90;;
11425;SDS011;5769;47.998;7.788;2024-01-10T11:41:28;1.83;;;1.00;;
11425;SDS011;5769;47.998;7.788;2024-01-10T11:47:18;1.40;;;0.80;;
11425;SDS011;5769;47.998;7.788;2024-01-10T11:49:57;2.30;;;1.02;;
11425;SDS011;5769;47.998;7.788;2024-01-10T11:52:31;1.50;;;0.80;;
11425;SDS011;5769;47.998;7.788;2024-01-10T11:55:05;2.70;;;1.10;;
11425;SDS011;5769;47.998;7.788;2024-01-10T11:57:35;1.80;;;0.95;;
11425;SDS011;5769;47.998;7.788;2024-01-10T12:00:04;1.88;;;0.88;;
11425;SDS011;5769;47.998;7.788;2024-01-10T12:02:34;2.33;;;1.00;;
11425;SDS011;5769;47.998;7.788;2024-01-10T12:05:06;1.75;;;0.90;;
11425;SDS011;5769;47.998;7.788;2024-01-10T12:07:35;1.73;;;0.82;;
11425;SDS011;5769;47.998;7.788;2024-01-10T12:10:02;1.45;;;0.85;;
11425;SDS011;5769;47.998;7.788;2024-01-10T12:12:35;2.38;;;0.88;;
11425;SDS011;5769;47.998;7.788;2024-01-10T12:15:04;1.63;;;0.90;;
11425;SDS011;5769;47.998;7.788;2024-01-10T12:17:32;1.92;;;0.80;;
11425;SDS011;5769;47.998;7.788;2024-01-10T12:20:02;2.30;;;1.08;;
11425;SDS011;5769;47.998;7.788;2024-01-10T12:22:31;1.58;;;0.82;;
11425;SDS011;5769;47.998;7.788;2024-01-10T12:25:05;1.67;;;0.80;;
11425;SDS011;5769;47.998;7.788;2024-01-10T12:27:31;2.50;;;0.90;;
11425;SDS011;5769;47.998;7.788;2024-01-10T12:29:59;1.90;;;0.90;;
11425;SDS011;5769;47.998;7.788;2024-01-10T12:32:28;2.78;;;0.90;;
11425;SDS011;5769;47.998;7.788;2024-01-10T12:34:59;3.38;;;1.40;;
11425;SDS011;5769;47.998;7.788;2024-01-10T12:37:26;2.70;;;1.30;;
11425;SDS011;5769;47.998;7.788;2024-01-10T12:39:55;3.50;;;1.40;;
11425;SDS011;5769;47.998;7.788;2024-01-10T12:42:24;6.60;;;1.60;;
11425;SDS011;5769;47.998;7.788;2024-01-10T12:44:51;1.70;;;1.20;;
11425;SDS011;5769;47.998;7.788;2024-01-10T12:47:19;2.00;;;1.20;;
11425;SDS011;5769;47.998;7.788;2024-01-10T12:49:46;2.28;;;1.33;;
11425;SDS011;5769;47.998;7.788;2024-01-10T12:52:13;2.58;;;1.10;;
11425;SDS011;5769;47.998;7.788;2024-01-10T12:54:40;1.95;;;1.20;;
11425;SDS011;5769;47.998;7.788;2024-01-10T12:57:07;2.70;;;1.30;;
11425;SDS011;5769;47.998;7.788;2024-01-10T12:59:36;2.40;;;1.27;;
11425;SDS011;5769;47.998;7.788;2024-01-10T13:02:03;2.58;;;1.42;;
11425;SDS011;5769;47.998;7.788;2024-01-10T13:04:35;2.70;;;1.48;;
11425;SDS011;5769;47.998;7.788;2024-01-10T13:07:05;2.22;;;1.13;;
11425;SDS011;5769;47.998;7.788;2024-01-10T13:09:33;2.50;;;1.30;;
11425;SDS011;5769;47.998;7.788;2024-01-10T13:12:00;4.50;;;1.60;;
11425;SDS011;5769;47.998;7.788;2024-01-10T13:14:27;2.55;;;1.27;;
11425;SDS011;5769;47.998;7.788;2024-01-10T13:16:57;3.25;;;1.35;;
11425;SDS011;5769;47.998;7.788;2024-01-10T13:19:24;2.72;;;1.40;;
11425;SDS011;5769;47.998;7.788;2024-01-10T13:21:54;2.42;;;1.50;;
11425;SDS011;5769;47.998;7.788;2024-01-10T13:24:24;2.90;;;1.40;;
11425;SDS011;5769;47.998;7.788;2024-01-10T13:26:51;2.10;;;1.20;;
11425;SDS011;5769;47.998;7.788;2024-01-10T13:29:18;3.83;;;1.50;;
11425;SDS011;5769;47.998;7.788;2024-01-10T13:31:45;3.45;;;1.20;;
11425;SDS011;5769;47.998;7.788;2024-01-10T13:34:16;2.08;;;1.27;;
11425;SDS011;5769;47.998;7.788;2024-01-10T13:36:43;2.17;;;1.45;;
11425;SDS011;5769;47.998;7.788;2024-01-10T13:39:09;3.65;;;1.23;;
11425;SDS011;5769;47.998;7.788;2024-01-10T13:41:40;3.03;;;1.23;;
11425;SDS011;5769;47.998;7.788;2024-01-10T13:44:07;2.30;;;1.25;;
11425;SDS011;5769;47.998;7.788;2024-01-10T13:46:37;12.30;;;1.65;;
11425;SDS011;5769;47.998;7.788;2024-01-10T13:49:04;4.32;;;1.20;;
11425;SDS011;5769;47.998;7.788;2024-01-10T13:51:32;2.20;;;1.15;;
11425;SDS011;5769;47.998;7.788;2024-01-10T13:53:59;2.40;;;1.48;;
11425;SDS011;5769;47.998;7.788;2024-01-10T13:56:26;3.83;;;1.40;;
11425;SDS011;5769;47.998;7.788;2024-01-10T13:58:55;2.50;;;1.23;;
11425;SDS011;5769;47.998;7.788;2024-01-10T14:01:22;1.83;;;1.17;;
11425;SDS011;5769;47.998;7.788;2024-01-10T14:03:49;3.80;;;1.40;;
11425;SDS011;5769;47.998;7.788;2024-01-10T14:06:16;2.10;;;1.10;;
11425;SDS011;5769;47.998;7.788;2024-01-10T14:08:45;2.70;;;1.40;;
11425;SDS011;5769;47.998;7.788;2024-01-10T14:11:14;2.20;;;1.30;;
11425;SDS011;5769;47.998;7.788;2024-01-10T14:13:41;1.92;;;1.20;;
11425;SDS011;5769;47.998;7.788;2024-01-10T14:16:07;2.60;;;1.60;;
11425;SDS011;5769;47.998;7.788;2024-01-10T14:18:36;2.45;;;1.50;;
11425;SDS011;5769;47.998;7.788;2024-01-10T14:21:03;3.75;;;1.38;;
11425;SDS011;5769;47.998;7.788;2024-01-10T14:23:30;2.42;;;1.13;;
11425;SDS011;5769;47.998;7.788;2024-01-10T14:25:58;2.70;;;1.20;;
11425;SDS011;5769;47.998;7.788;2024-01-10T14:28:25;4.57;;;1.48;;
11425;SDS011;5769;47.998;7.788;2024-01-10T14:30:52;2.47;;;1.20;;
11425;SDS011;5769;47.998;7.788;2024-01-10T14:33:19;2.50;;;1.40;;
11425;SDS011;5769;47.998;7.788;2024-01-10T14:35:46;2.00;;;1.20;;
11425;SDS011;5769;47.998;7.788;2024-01-10T14:38:13;2.22;;;1.30;;
11425;SDS011;5769;47.998;7.788;2024-01-10T14:40:40;1.80;;;1.27;;
11425;SDS011;5769;47.998;7.788;2024-01-10T14:43:08;2.20;;;1.20;;
11425;SDS011;5769;47.998;7.788;2024-01-10T14:45:34;2.35;;;1.30;;
11425;SDS011;5769;47.998;7.788;2024-01-10T14:48:03;2.88;;;1.50;;
11425;SDS011;5769;47.998;7.788;2024-01-10T14:50:30;3.38;;;1.48;;
11425;SDS011;5769;47.998;7.788;2024-01-10T14:52:57;2.28;;;1.30;;
11425;SDS011;5769;47.998;7.788;2024-01-10T14:55:23;2.55;;;1.20;;
11425;SDS011;5769;47.998;7.788;2024-01-10T14:57:51;2.92;;;1.40;;
11425;SDS011;5769;47.998;7.788;2024-01-10T15:00:22;5.00;;;1.50;;
11425;SDS011;5769;47.998;7.788;2024-01-10T15:02:49;4.55;;;1.60;;
11425;SDS011;5769;47.998;7.788;2024-01-10T15:05:16;2.40;;;1.40;;
11425;SDS011;5769;47.998;7.788;2024-01-10T15:07:44;2.65;;;1.45;;
11425;SDS011;5769;47.998;7.788;2024-01-10T15:10:10;3.20;;;1.40;;
11425;SDS011;5769;47.998;7.788;2024-01-10T15:12:38;2.53;;;1.40;;
11425;SDS011;5769;47.998;7.788;2024-01-10T15:15:05;2.72;;;1.38;;
11425;SDS011;5769;47.998;7.788;2024-01-10T15:17:34;2.15;;;1.27;;
11425;SDS011;5769;47.998;7.788;2024-01-10T15:20:00;2.22;;;1.25;;